Aérodrome :
LOGIN :

S'inscrire | Disclaimer

   EN    FR    IT 

 










Légende :    VFR   VFR Marginal   IFR   IFR Intensif   IFR Très Intensif
Visi : 
Plafond : 
>= 8 km
>= 3000ft
5 à 8 km
1000 à 3000 ft
1500m à 5 km
500 à 1000 ft
800 à 1500m
200 à 500 ft
< 800m
< 200 ft
Symboles :   Orages  Brouillard  Fortes neiges  Fortes précipitations  Vent > 20 kt
SIGMETs :   Divers  Orages  Givrage  Turbulence  Onde Orograph.  Cendres Volcan.







- Altitude de l'aérodrome : 681 ft
- Code IATA : LBA
- Voir les cartes d'approche


EGNM - Leeds Bradford

DERNIER METAR :
  • 221220Z 20019G33KT 160V240 9999 SCT018 BKN022 14/10 Q0986

METARs EXPIRÉS :
  • 221150Z 21021G35KT 160V260 9999 SCT015 BKN018 14/10 Q0987
  • 221120Z 21019G35KT 170V270 9999 SCT012 BKN015 14/10 Q0988
  • 221050Z 21015G28KT 140V250 9999 SCT012 BKN015 13/10 Q0988
  • 221020Z 21019G32KT 180V270 9999 SCT012 BKN015 13/10 Q0989
  • 220950Z 22018G33KT 170V270 9999 -RADZ SCT012 BKN015 13/10 Q0989

TAF TAF EGNM
Valide du 22 à 12h jusqu'au 23 à 12h UTC


221058Z 2212/2312 21015KT 9999 BKN020
TEMPO 2212/2220 20020G35KT
TEMPO 2214/2305 7000 SHRA BKN014
PROB30
TEMPO 2220/2304 21025G40KT 4000 +SHRA
BECMG 2304/2306 27015KT
PROB40
TEMPO 2304/2306 27020G30KT
ATIS : +44 113 250 9696 (x2489)
Pas de NOTAMs connus pour ce terrain.
2 SIGMETs publiés pour la FIR London (EGTT) :
 
Turbulence forte
EGTT SIGMET 05 VALID 221000/221400 EGRR
EGTT LONDON FIR SEV TURB FCST WI N4850 W00800 - N5100 W00800 - N5220 W00530 - N5345 W00530 - N5439 W00223 - N4932 W00435 - N4850 W00800 SFC/FL060 MOV ENE 15KT INTSF=
Onde orographique forte
EGTT SIGMET 04 VALID 221000/221400 EGRR
EGTT LONDON FIR SEV MTW FCST WI N5500 E00045 - N5412 E00110 - N5047 W00255 - N5045 W00430 - N5500 W00415 - N5500 W00100 - N5500 E00045 FL020/180 STNR INTSF=



MET'MAP, la Météo Aéronautique d'un coup d'oeil ! - Copyright ORBIFLY Décembre 2007 - Disclaimer

ORBIFLY MET'MAP TEAM :

Programmation & Développement : Alexandra Zaïnal
Conception & Développement : Baudouin d'Aumeries
Co-Programmation & Développement : Marc-Olivier Méhu
Soutien technique & logistique : Manuel Goepfert

Contact : metmap@orbifly.com




SOURCES & CREDITS :

   NOAA